createdAt,value
2022-08-22T00:00:54.073Z,1.40
2022-08-22T00:03:50.747Z,1.20
2022-08-22T00:06:28.763Z,1.20
2022-08-22T00:09:11.306Z,1.30
2022-08-22T00:12:16.380Z,1.20
2022-08-22T00:15:05.953Z,1.00
2022-08-22T00:17:39.392Z,1.20
2022-08-22T00:20:10.795Z,1.30
2022-08-22T00:23:10.939Z,1.40
2022-08-22T00:26:13.402Z,1.30
2022-08-22T00:28:46.488Z,1.00
2022-08-22T00:31:21.117Z,1.10
2022-08-22T00:33:55.446Z,1.30
2022-08-22T00:36:33.665Z,1.30
2022-08-22T00:39:19.019Z,1.10
2022-08-22T00:42:08.916Z,1.30
2022-08-22T00:44:54.355Z,1.70
2022-08-22T00:47:44.240Z,1.60
2022-08-22T00:50:33.894Z,1.30
2022-08-22T00:53:32.312Z,1.10
2022-08-22T00:56:14.382Z,1.30
2022-08-22T01:02:31.844Z,1.40
2022-08-22T01:05:38.027Z,1.20
2022-08-22T01:12:13.300Z,1.60
2022-08-22T01:15:25.543Z,1.70
2022-08-22T01:18:38.677Z,1.80
2022-08-22T01:25:08.951Z,2.10
2022-08-22T01:28:57.602Z,2.30
2022-08-22T01:32:02.067Z,1.50
2022-08-22T01:34:49.582Z,1.80
2022-08-22T01:38:11.085Z,2.10
2022-08-22T01:41:12.180Z,1.80
2022-08-22T01:44:26.952Z,2.20
2022-08-22T01:47:12.708Z,1.80
2022-08-22T01:49:57.568Z,2.10
2022-08-22T01:52:44.130Z,2.20
2022-08-22T01:55:30.028Z,2.20
2022-08-22T02:05:15.915Z,2.00
2022-08-22T02:08:08.938Z,1.90
2022-08-22T02:11:07.079Z,1.70
2022-08-22T02:13:37.798Z,1.40
2022-08-22T02:16:44.800Z,2.00
2022-08-22T02:22:44.843Z,1.70
2022-08-22T02:25:37.255Z,1.90
2022-08-22T02:28:56.518Z,1.80
2022-08-22T02:32:10.747Z,2.00
2022-08-22T02:42:22.622Z,2.00
2022-08-22T02:45:09.552Z,2.30
2022-08-22T02:48:02.487Z,2.30
2022-08-22T02:50:56.312Z,2.50
2022-08-22T02:53:34.264Z,2.10
2022-08-22T02:56:48.213Z,1.80
2022-08-22T03:03:25.091Z,1.50
2022-08-22T03:06:41.465Z,1.40
2022-08-22T03:09:34.957Z,1.70
2022-08-22T03:12:38.729Z,1.60
2022-08-22T03:15:26.201Z,2.10
2022-08-22T03:18:33.829Z,1.50
2022-08-22T03:21:44.037Z,1.00
2022-08-22T03:24:40.586Z,2.70
2022-08-22T03:31:36.505Z,8.30
2022-08-22T03:34:29.695Z,6.10
2022-08-22T03:37:43.877Z,5.60
2022-08-22T03:40:26.662Z,2.90
2022-08-22T03:43:52.841Z,1.70
2022-08-22T03:46:49.996Z,1.40
2022-08-22T03:50:11.131Z,1.30
2022-08-22T03:53:18.631Z,1.30
2022-08-22T03:56:11.051Z,1.20
2022-08-22T04:02:43.306Z,1.30
2022-08-22T04:05:40.850Z,0.90
2022-08-22T04:09:01.976Z,1.00
2022-08-22T04:12:06.490Z,1.00
2022-08-22T04:18:18.511Z,0.90
2022-08-22T04:21:20.583Z,0.80
2022-08-22T04:24:23.755Z,1.30
2022-08-22T04:27:29.321Z,0.90
2022-08-22T04:30:09.258Z,1.20
2022-08-22T04:33:11.258Z,1.30
2022-08-22T04:39:11.520Z,1.30
2022-08-22T04:45:09.919Z,1.00
2022-08-22T04:48:20.371Z,1.40
2022-08-22T04:54:36.714Z,1.60
2022-08-22T04:57:45.440Z,1.00
2022-08-22T05:03:25.988Z,1.60
2022-08-22T05:06:23.408Z,1.40
2022-08-22T05:09:40.319Z,1.50
2022-08-22T05:12:34.706Z,1.30
2022-08-22T05:18:58.596Z,1.80
2022-08-22T05:21:42.435Z,1.80
2022-08-22T05:24:57.744Z,1.70
2022-08-22T05:27:56.228Z,3.10
2022-08-22T05:30:35.168Z,7.80
2022-08-22T05:33:17.777Z,5.50
2022-08-22T05:36:19.915Z,3.50
2022-08-22T05:39:20.075Z,2.50
2022-08-22T05:45:35.601Z,1.80
2022-08-22T05:49:05.368Z,2.40
2022-08-22T05:59:49.456Z,2.10
2022-08-22T06:06:31.268Z,2.20
2022-08-22T06:17:09.758Z,2.20
2022-08-22T06:20:03.586Z,2.50
2022-08-22T06:22:55.518Z,2.70
2022-08-22T06:25:56.347Z,2.70
2022-08-22T06:32:02.070Z,3.00
2022-08-22T06:35:38.785Z,2.80
2022-08-22T06:41:39.364Z,2.20
2022-08-22T06:44:39.431Z,2.20
2022-08-22T06:47:41.291Z,2.50
2022-08-22T06:53:57.628Z,3.00
2022-08-22T06:56:48.993Z,3.10
2022-08-22T06:59:46.526Z,2.90
2022-08-22T07:03:17.339Z,2.80
2022-08-22T07:05:58.928Z,2.70
2022-08-22T07:08:39.124Z,2.50
2022-08-22T07:12:02.681Z,2.70
2022-08-22T07:18:09.939Z,2.60
2022-08-22T07:21:13.897Z,2.50
2022-08-22T07:24:16.586Z,3.30
2022-08-22T07:31:44.075Z,2.70
2022-08-22T07:49:13.372Z,2.40
2022-08-22T07:51:45.769Z,2.50
2022-08-22T07:54:16.250Z,2.60
2022-08-22T07:57:00.015Z,2.70
2022-08-22T07:59:28.812Z,2.80
2022-08-22T08:01:59.014Z,2.90
2022-08-22T08:04:31.258Z,2.70
2022-08-22T08:07:00.850Z,2.80
2022-08-22T08:09:32.421Z,2.70
2022-08-22T08:12:02.638Z,2.70
2022-08-22T08:14:30.060Z,2.90
2022-08-22T08:17:08.989Z,3.10
2022-08-22T08:19:39.693Z,2.90
2022-08-22T08:22:14.727Z,3.00
2022-08-22T08:24:43.546Z,3.40
2022-08-22T08:27:30.961Z,3.60
2022-08-22T08:30:10.071Z,2.70
2022-08-22T08:32:45.533Z,3.20
2022-08-22T08:35:42.426Z,2.90
2022-08-22T08:38:30.524Z,3.30
2022-08-22T08:41:06.731Z,3.10
2022-08-22T08:43:38.936Z,3.50
2022-08-22T08:46:34.039Z,3.40
2022-08-22T08:49:09.859Z,3.40
2022-08-22T08:51:46.382Z,2.90
2022-08-22T08:54:42.846Z,3.00
2022-08-22T08:57:25.721Z,3.50
2022-08-22T09:00:07.795Z,3.20
2022-08-22T09:02:53.078Z,3.70
2022-08-22T09:05:25.344Z,3.50
2022-08-22T09:08:23.953Z,3.90
2022-08-22T09:11:28.572Z,3.30
2022-08-22T09:14:14.278Z,3.60
2022-08-22T09:16:58.451Z,3.20
2022-08-22T09:19:54.723Z,4.90
2022-08-22T09:22:50.004Z,3.80
2022-08-22T09:25:23.482Z,3.40
2022-08-22T09:28:02.046Z,3.50
2022-08-22T09:33:52.054Z,3.40
2022-08-22T09:36:38.451Z,11.50
2022-08-22T09:39:16.899Z,3.80
2022-08-22T09:42:02.764Z,2.90
2022-08-22T09:44:49.292Z,3.20
2022-08-22T09:47:32.782Z,5.20
2022-08-22T09:50:19.740Z,3.50
2022-08-22T09:52:53.104Z,3.40
2022-08-22T09:58:40.845Z,3.60
2022-08-22T10:01:25.710Z,3.00
2022-08-22T10:04:23.610Z,3.10
2022-08-22T10:07:16.713Z,3.50
2022-08-22T10:10:03.732Z,3.10
2022-08-22T10:12:52.280Z,3.90
2022-08-22T10:15:29.598Z,3.70
2022-08-22T10:18:28.262Z,3.60
2022-08-22T10:21:01.331Z,3.40
2022-08-22T10:24:00.909Z,4.20
2022-08-22T10:26:37.894Z,4.30
2022-08-22T10:29:37.884Z,4.00
2022-08-22T10:32:37.344Z,3.80
2022-08-22T10:35:36.453Z,3.70
2022-08-22T10:38:21.173Z,4.10
2022-08-22T10:41:09.956Z,3.80
2022-08-22T10:43:47.541Z,4.00
2022-08-22T10:46:34.028Z,3.50
2022-08-22T10:49:15.390Z,3.50
2022-08-22T10:51:58.407Z,3.90
2022-08-22T10:54:57.568Z,3.70
2022-08-22T10:57:40.873Z,4.50
2022-08-22T11:00:34.728Z,3.80
2022-08-22T11:03:43.025Z,3.70
2022-08-22T11:06:30.400Z,2.90
2022-08-22T11:09:31.157Z,7.50
